Time;durP1;ratioP1;P1;durP2;ratioP2;P2;SDS_P1;SDS_P2;PMS_P1;PMS_P2;Temp;Humidity;BMP_temperature;BMP_pressure;BME280_temperature;BME280_humidity;BME280_pressure;Samples;Min_cycle;Max_cycle;Signal;HPM_P1;HPM_P2
2022/01/23 00:00:55;;;;;;;1.55;1.45;;;6.20;99.90;;;;;;4998865;28;20049;-80
2022/01/23 00:03:21;;;;;;;3.45;1.30;;;6.10;99.90;;;;;;5008058;28;20438;-80
2022/01/23 00:05:49;;;;;;;2.10;1.90;;;6.20;99.90;;;;;;5002770;28;20049;-81
2022/01/23 00:08:20;;;;;;;2.90;1.80;;;6.20;99.90;;;;;;4982896;28;20508;-80
2022/01/23 00:10:46;;;;;;;2.45;1.60;;;6.20;99.90;;;;;;4989446;28;20052;-80
2022/01/23 00:13:35;;;;;;;1.80;1.60;;;6.20;99.90;;;;;;5003967;28;20057;-80
2022/01/23 00:18:48;;;;;;;2.33;1.60;;;6.20;99.90;;;;;;5006986;28;20046;-81
2022/01/23 00:21:14;;;;;;;2.05;1.55;;;6.20;99.90;;;;;;5005077;28;20053;-80
2022/01/23 00:31:36;;;;;;;3.65;1.75;;;6.20;99.90;;;;;;4988103;28;20038;-81
2022/01/23 00:34:02;;;;;;;2.13;1.92;;;6.20;99.90;;;;;;4982321;28;20054;-81
2022/01/23 00:36:31;;;;;;;2.00;1.77;;;6.20;99.90;;;;;;4988060;28;20052;-81
2022/01/23 00:38:57;;;;;;;3.88;1.90;;;6.10;99.90;;;;;;5006575;28;20037;-81
2022/01/23 00:41:23;;;;;;;1.80;1.67;;;6.10;99.90;;;;;;4990580;28;20057;-80
2022/01/23 00:43:50;;;;;;;1.77;1.60;;;6.10;99.90;;;;;;5001462;28;20394;-80
2022/01/23 00:51:21;;;;;;;1.85;1.60;;;6.00;99.90;;;;;;5004549;28;20046;-80
2022/01/23 00:53:47;;;;;;;1.67;1.50;;;6.00;99.90;;;;;;4985838;28;20486;-81
2022/01/23 00:56:15;;;;;;;2.60;1.60;;;6.00;99.90;;;;;;4984594;28;20046;-81
2022/01/23 00:58:41;;;;;;;2.25;1.50;;;5.90;99.90;;;;;;5007116;28;20126;-81
2022/01/23 01:01:06;;;;;;;1.60;1.50;;;6.00;99.90;;;;;;5006892;28;20478;-80
2022/01/23 01:03:32;;;;;;;2.08;1.60;;;6.00;99.90;;;;;;4985875;28;20054;-81
2022/01/23 01:05:59;;;;;;;2.80;1.80;;;6.00;99.90;;;;;;4989700;28;20054;-80
2022/01/23 01:08:25;;;;;;;2.53;1.63;;;6.00;99.90;;;;;;4987151;28;20042;-80
2022/01/23 01:35:39;;;;;;;1.75;1.30;;;6.10;99.90;;;;;;4938604;28;20090;-81
2022/01/23 01:38:05;;;;;;;2.50;1.40;;;;;;;;;;5010851;28;20046;-80
2022/01/23 01:40:31;;;;;;;2.08;1.42;;;;;;;;;;5010157;28;20046;-81
2022/01/23 01:42:57;;;;;;;1.38;1.35;;;;;;;;;;4993036;28;20084;-81
2022/01/23 01:45:25;;;;;;;2.55;1.58;;;;;;;;;;5011011;28;20870;-80
2022/01/23 01:47:52;;;;;;;1.42;1.33;;;;;;;;;;5008627;28;20060;-80
2022/01/23 01:50:18;;;;;;;1.80;1.48;;;;;;;;;;5010844;28;20124;-80
2022/01/23 01:52:44;;;;;;;1.52;1.42;;;;;;;;;;4987266;28;20042;-80
2022/01/23 01:55:14;;;;;;;3.42;1.90;;;;;;;;;;4988374;28;20054;-80
2022/01/23 01:57:50;;;;;;;1.52;1.17;;;;;;;;;;4996965;28;20061;-80
2022/01/23 02:08:28;;;;;;;2.38;1.50;;;;;;;;;;4989323;28;20486;-80
2022/01/23 02:11:00;;;;;;;1.50;1.38;;;;;;;;;;4990824;28;20435;-80
2022/01/23 02:13:40;;;;;;;1.35;1.20;;;;;;;;;;4986204;28;20050;-80
2022/01/23 02:57:08;;;;;;;4.60;2.20;;;;;;;;;;5009633;28;20034;-81
2022/01/23 02:59:37;;;;;;;4.97;2.30;;;;;;;;;;4991737;28;20130;-81
2022/01/23 03:04:52;;;;;;;5.07;2.90;;;;;;;;;;5003020;28;20052;-80
2022/01/23 03:07:53;;;;;;;5.63;2.60;;;;;;;;;;4990923;28;20050;-80
2022/01/23 03:10:26;;;;;;;2.65;2.22;;;;;;;;;;4984899;28;20397;-81
2022/01/23 03:15:58;;;;;;;4.90;2.85;;;;;;;;;;4991378;28;20068;-81
2022/01/23 03:28:16;;;;;;;3.20;1.90;;;;;;;;;;4915939;29;20135;-80
2022/01/23 03:30:13;;;;;;;2.55;2.03;;;;;;;;;;4914733;29;20135;-80
2022/01/23 03:32:40;;;;;;;3.58;1.70;;;;;;;;;;4981669;28;20050;-81
2022/01/23 03:35:07;;;;;;;2.13;1.70;;;;;;;;;;4992059;28;20371;-81
2022/01/23 03:37:33;;;;;;;4.03;2.05;;;;;;;;;;5006423;28;20048;-80
2022/01/23 03:39:59;;;;;;;2.05;1.88;;;;;;;;;;5004865;28;20041;-80
2022/01/23 03:42:26;;;;;;;4.68;2.20;;;;;;;;;;5004026;28;20054;-80
2022/01/23 03:45:49;;;;;;;2.88;1.98;;;;;;;;;;5009270;28;20135;-79
2022/01/23 03:49:29;;;;;;;4.35;2.03;;;;;;;;;;4983202;28;20046;-80
2022/01/23 03:50:30;;;;;;;3.42;2.17;;;;;;;;;;4985625;28;20054;-80
2022/01/23 03:52:57;;;;;;;2.58;2.00;;;;;;;;;;4988993;28;20048;-80
2022/01/23 03:55:23;;;;;;;4.93;2.30;;;;;;;;;;5007188;28;20050;-80
2022/01/23 03:57:48;;;;;;;3.88;2.25;;;;;;;;;;4988321;28;20037;-81
2022/01/23 04:00:17;;;;;;;2.92;2.33;;;;;;;;;;5006226;28;20053;-80
2022/01/23 04:02:43;;;;;;;5.13;2.72;;;;;;;;;;5007546;28;20883;-81
2022/01/23 04:05:09;;;;;;;7.25;2.40;;;;;;;;;;4990041;28;20053;-80
2022/01/23 04:07:38;;;;;;;4.65;2.88;;;;;;;;;;5005018;28;20043;-81
2022/01/23 04:10:04;;;;;;;5.47;2.67;;;;;;;;;;4987946;28;20045;-80
2022/01/23 04:12:52;;;;;;;4.40;2.53;;;;;;;;;;4987583;28;20486;-81
2022/01/23 04:15:41;;;;;;;5.35;2.92;;;;;;;;;;4989722;28;20057;-80
2022/01/23 05:01:06;;;;;;;8.57;5.00;;;;;;;;;;4988000;28;20049;-80
2022/01/23 05:06:24;;;;;;;7.05;4.35;;;;;;;;;;4987638;28;20057;-80
2022/01/23 05:08:50;;;;;;;8.85;4.72;;;;;;;;;;4985417;28;20074;-81
2022/01/23 05:11:16;;;;;;;9.25;4.70;;;;;;;;;;4991839;28;20045;-81
2022/01/23 05:13:42;;;;;;;7.53;5.07;;;;;;;;;;4988157;28;20092;-80
2022/01/23 05:16:10;;;;;;;8.13;4.78;;;;;;;;;;4989438;28;20053;-80
2022/01/23 05:18:39;;;;;;;10.80;5.30;;;;;;;;;;5004100;28;20093;-80
2022/01/23 05:21:37;;;;;;;13.35;5.57;;;;;;;;;;5007226;28;20058;-81
2022/01/23 05:24:00;;;;;;;8.07;4.78;;;;;;;;;;4985650;28;20050;-80
2022/01/23 05:26:26;;;;;;;9.50;5.10;;;;;;;;;;5004839;28;20179;-80
2022/01/23 05:28:52;;;;;;;10.40;5.13;;;;;;;;;;4989949;28;20120;-81
2022/01/23 05:31:19;;;;;;;10.40;4.97;;;;;;;;;;5002422;28;20491;-80
2022/01/23 05:33:45;;;;;;;10.60;5.50;;;;;;;;;;4988604;28;20072;-81
2022/01/23 05:36:11;;;;;;;9.38;5.50;;;;;;;;;;4987479;28;20489;-81
2022/01/23 05:38:37;;;;;;;16.05;6.00;;;;;;;;;;4983792;28;20482;-81
2022/01/23 05:41:03;;;;;;;12.55;5.40;;;;;;;;;;4988671;28;20073;-80
2022/01/23 05:43:34;;;;;;;13.63;5.97;;;;;;;;;;5002444;28;20046;-80
2022/01/23 05:46:00;;;;;;;11.07;5.93;;;;;;;;;;4999801;28;20097;-80
2022/01/23 05:48:29;;;;;;;13.45;6.43;;;;;;;;;;4984961;28;20069;-80
2022/01/23 05:50:56;;;;;;;11.82;6.07;;;;;;;;;;4991087;28;20121;-80
2022/01/23 05:53:22;;;;;;;12.80;5.93;;;;;;;;;;4988716;28;20108;-80
2022/01/23 05:55:47;;;;;;;13.93;6.57;;;;;;;;;;4981566;28;20042;-80
2022/01/23 05:58:13;;;;;;;11.45;6.00;;;;;;;;;;4987009;28;20041;-80
2022/01/23 06:00:40;;;;;;;17.25;7.75;;;;;;;;;;4983271;28;20170;-80
2022/01/23 06:03:09;;;;;;;15.75;6.43;;;;;;;;;;5003543;28;20041;-80
2022/01/23 06:05:35;;;;;;;13.13;6.13;;;;;;;;;;4985852;28;20296;-80
2022/01/23 06:08:01;;;;;;;15.02;6.40;;;;;;;;;;4983958;28;20046;-80
2022/01/23 06:10:29;;;;;;;10.95;5.90;;;;;;;;;;5003155;28;20042;-80
2022/01/23 06:12:55;;;;;;;12.23;6.15;;;;;;;;;;5006260;28;20037;-80
2022/01/23 06:15:21;;;;;;;11.40;6.25;;;;;;;;;;4987668;28;20133;-80
2022/01/23 06:17:47;;;;;;;10.80;6.22;;;;;;;;;;5007988;28;20084;-80
2022/01/23 06:20:14;;;;;;;12.75;6.75;;;;;;;;;;5006299;28;20378;-80
2022/01/23 06:22:42;;;;;;;10.65;6.53;;;;;;;;;;5004217;28;20107;-80
2022/01/23 06:25:11;;;;;;;9.80;6.53;;;;;;;;;;4991386;28;20100;-80
2022/01/23 06:27:37;;;;;;;8.63;6.05;;;;;;;;;;4991689;28;20061;-80
2022/01/23 06:30:03;;;;;;;11.38;6.45;;;;;;;;;;5006813;28;20045;-80
2022/01/23 06:32:29;;;;;;;11.90;6.70;;;;;;;;;;5005810;28;20038;-80
2022/01/23 06:34:55;;;;;;;13.85;6.38;;;;;;;;;;4992980;28;20053;-80
2022/01/23 06:37:24;;;;;;;9.63;6.43;;;;;;;;;;5009682;28;20041;-80
2022/01/23 06:39:50;;;;;;;10.43;5.88;;;;;;;;;;5009298;28;20064;-80
2022/01/23 06:42:19;;;;;;;15.20;6.50;;;;;;;;;;5004721;28;20568;-80
2022/01/23 06:44:45;;;;;;;10.40;6.28;;;;;;;;;;4989946;28;20085;-80
2022/01/23 06:47:12;;;;;;;10.80;6.20;;;;;;;;;;4988188;28;20042;-80
2022/01/23 06:49:40;;;;;;;8.52;5.80;;;;;;;;;;5006937;28;20079;-80
2022/01/23 06:52:07;;;;;;;7.47;5.70;;;;;;;;;;5008381;28;20069;-80
2022/01/23 06:54:33;;;;;;;10.98;5.93;;;;;;;;;;4989197;28;20039;-80
2022/01/23 06:56:59;;;;;;;10.90;5.88;;;;;;;;;;4992654;28;20042;-80
2022/01/23 06:59:25;;;;;;;11.95;5.95;;;;;;;;;;5010369;28;20136;-80
2022/01/23 07:01:51;;;;;;;8.70;5.45;;;;;;;;;;4990392;28;20081;-80
2022/01/23 07:04:17;;;;;;;9.95;5.88;;;;;;;;;;4991065;28;20049;-80
2022/01/23 07:06:43;;;;;;;14.23;5.78;;;;;;;;;;4992171;28;20049;-80
2022/01/23 07:09:09;;;;;;;8.80;5.70;;;;;;;;;;5006066;28;20125;-80
2022/01/23 07:11:35;;;;;;;8.50;6.20;;;;;;;;;;5008917;28;20054;-80
2022/01/23 07:14:01;;;;;;;12.25;5.90;;;;;;;;;;5009275;28;20069;-80
2022/01/23 07:16:27;;;;;;;9.68;5.57;;;;;;;;;;5009836;28;20045;-80
2022/01/23 07:18:53;;;;;;;9.10;5.40;;;;;;;;;;4989044;28;20474;-80
2022/01/23 07:21:19;;;;;;;7.68;5.30;;;;;;;;;;5001782;28;20070;-80
2022/01/23 07:23:50;;;;;;;14.88;5.68;;;;;;;;;;4987081;28;20050;-80
2022/01/23 07:26:18;;;;;;;12.43;6.57;;;;;;;;;;4987108;28;20093;-80
2022/01/23 07:28:45;;;;;;;8.85;5.00;;;;;;;;;;4984508;28;20053;-80
2022/01/23 07:31:20;;;;;;;9.98;5.55;;;;;;;;;;4989440;28;20101;-80
2022/01/23 07:33:46;;;;;;;10.23;5.28;;;;;;;;;;4986796;28;20559;-80
2022/01/23 07:36:15;;;;;;;8.88;4.63;;;;;;;;;;4989578;28;20049;-80
2022/01/23 07:38:40;;;;;;;9.45;5.60;;;;;;;;;;5002800;28;20039;-81
2022/01/23 07:41:06;;;;;;;7.50;5.13;;;;;;;;;;4990314;28;20104;-80
2022/01/23 07:43:35;;;;;;;9.77;4.70;;;;;;;;;;5004635;28;20038;-81
2022/01/23 07:46:01;;;;;;;6.35;4.78;;;;;;;;;;4986902;28;20050;-80
2022/01/23 07:48:27;;;;;;;10.85;5.50;;;;;;;;;;5008341;28;20103;-80
2022/01/23 07:50:53;;;;;;;8.73;5.03;;;;;;;;;;4992014;28;20057;-80
2022/01/23 07:53:19;;;;;;;9.60;6.15;;;;;;;;;;4988419;28;20101;-80
2022/01/23 07:55:49;;;;;;;7.35;5.20;;;;;;;;;;4993839;28;20092;-80
2022/01/23 07:58:15;;;;;;;12.20;5.43;;;;;;;;;;4988847;28;20072;-80
2022/01/23 08:00:42;;;;;;;10.68;5.82;;;;;;;;;;5004532;28;20504;-81
2022/01/23 08:03:08;;;;;;;10.93;5.53;;;;;;;;;;4988571;28;20042;-81
2022/01/23 08:05:35;;;;;;;10.70;6.32;;;;;;;;;;4989687;28;20058;-80
2022/01/23 08:08:01;;;;;;;15.60;10.45;;;;;;;;;;5007717;28;20112;-80
2022/01/23 08:10:27;;;;;;;10.35;8.02;;;;;;;;;;4991301;28;20058;-80
2022/01/23 08:12:53;;;;;;;9.50;7.72;;;;;;;;;;5007104;28;20050;-80
2022/01/23 08:15:19;;;;;;;11.45;7.00;;;;;;;;;;5008648;28;20152;-81
2022/01/23 08:17:45;;;;;;;9.73;6.85;;;;;;;;;;5009215;28;20044;-81
2022/01/23 08:20:11;;;;;;;12.35;7.32;;;;;;;;;;5006037;28;20046;-81
2022/01/23 08:22:37;;;;;;;14.55;12.45;;;;;;;;;;5007378;28;20121;-81
2022/01/23 08:25:04;;;;;;;13.00;9.10;;;;;;;;;;5007394;28;20049;-81
2022/01/23 08:27:30;;;;;;;11.15;8.13;;;;;;;;;;4990777;28;20211;-81
2022/01/23 08:29:57;;;;;;;9.55;6.60;;;;;;;;;;4989333;28;20111;-81
2022/01/23 08:32:24;;;;;;;10.07;6.75;;;;;;;;;;5005778;28;20140;-81
2022/01/23 08:34:50;;;;;;;12.10;7.10;;;;;;;;;;5009326;28;20638;-81
2022/01/23 08:37:16;;;;;;;9.63;6.32;;;;;;;;;;5003476;28;20129;-80
2022/01/23 08:39:43;;;;;;;11.52;7.47;;;;;;;;;;5005592;28;20120;-81
2022/01/23 08:42:10;;;;;;;10.52;6.32;;;;;;;;;;5005087;28;20057;-80
2022/01/23 08:44:37;;;;;;;10.25;6.40;;;;;;;;;;5005266;28;20041;-81
2022/01/23 08:47:09;;;;;;;9.77;6.35;;;;;;;;;;4981291;28;20046;-81
2022/01/23 08:49:43;;;;;;;10.53;6.77;;;;;;;;;;5000060;28;20057;-81
2022/01/23 08:52:09;;;;;;;10.32;6.88;;;;;;;;;;4987117;28;20405;-80
2022/01/23 08:54:35;;;;;;;10.45;6.82;;;;;;;;;;4989027;28;20836;-80
2022/01/23 08:57:01;;;;;;;7.90;5.85;;;;;;;;;;5003214;28;20139;-81
2022/01/23 08:59:28;;;;;;;16.33;11.10;;;;;;;;;;4989345;28;20192;-81
2022/01/23 09:01:54;;;;;;;8.13;6.10;;;;;;;;;;4987641;28;20037;-81
2022/01/23 09:04:20;;;;;;;8.75;5.57;;;;;;;;;;4982653;28;20049;-81
2022/01/23 09:06:49;;;;;;;10.80;7.95;;;;;;;;;;4987832;28;20056;-80
2022/01/23 09:09:18;;;;;;;8.45;6.05;;;;;;;;;;4988410;28;20065;-81
2022/01/23 09:12:06;;;;;;;8.27;6.70;;;;;;;;;;5001581;28;20139;-81
2022/01/23 09:14:32;;;;;;;9.20;6.32;;;;;;;;;;4986414;28;20045;-81
2022/01/23 09:16:59;;;;;;;9.15;6.07;;;;;;;;;;5001812;28;20490;-81
2022/01/23 09:19:26;;;;;;;8.93;5.47;;;;;;;;;;4987834;28;21802;-81
2022/01/23 09:21:53;;;;;;;8.15;5.65;;;;;;;;;;5004203;28;20054;-81
2022/01/23 09:24:20;;;;;;;8.93;5.45;;;;;;;;;;4988996;28;20486;-80
2022/01/23 09:26:52;;;;;;;9.75;5.28;;;;;;;;;;5011413;28;20085;-80
2022/01/23 09:29:25;;;;;;;5.97;4.90;;;;;;;;;;4999193;28;20058;-81
2022/01/23 09:31:53;;;;;;;6.95;5.50;;;;;;;;;;4981838;28;20060;-81
2022/01/23 09:34:20;;;;;;;7.13;5.30;;;;;;;;;;4985138;28;20057;-81
2022/01/23 09:36:46;;;;;;;8.23;4.72;;;;;;;;;;5007399;28;20148;-81
2022/01/23 09:39:15;;;;;;;7.93;4.95;;;;;;;;;;5003894;28;20516;-81
2022/01/23 09:41:45;;;;;;;7.40;4.78;;;;;;;;;;5006302;28;20052;-81
2022/01/23 09:44:13;;;;;;;6.60;4.97;;;;;;;;;;4997036;28;20050;-81
2022/01/23 09:46:39;;;;;;;7.97;5.03;;;;;;;;;;4988844;28;20505;-81
2022/01/23 09:49:05;;;;;;;6.93;4.88;;;;;;;;;;4981760;28;20038;-80
2022/01/23 09:51:33;;;;;;;6.72;5.25;;;;;;;;;;5008292;28;20096;-80
2022/01/23 09:53:59;;;;;;;9.82;5.80;;;;;;;;;;5010142;28;20078;-81
2022/01/23 09:56:29;;;;;;;6.00;5.07;;;;;;;;;;5012528;28;20053;-80
2022/01/23 09:58:57;;;;;;;8.05;5.05;;;;;;;;;;4991000;28;20050;-80
2022/01/23 10:01:23;;;;;;;20.42;12.90;;;;;;;;;;4992910;28;20352;-81
2022/01/23 10:03:50;;;;;;;14.00;8.48;;;;;;;;;;5004010;28;20054;-80
2022/01/23 10:06:16;;;;;;;7.88;5.68;;;;;;;;;;5008243;28;20049;-80
2022/01/23 10:08:43;;;;;;;11.32;6.10;;;;;;;;;;5005241;28;20046;-80
2022/01/23 10:11:12;;;;;;;9.90;5.68;;;;;;;;;;5012276;28;20049;-80
2022/01/23 10:13:42;;;;;;;7.93;5.65;;;;;;;;;;4988493;28;20045;-80
2022/01/23 10:16:08;;;;;;;7.20;5.65;;;;;;;;;;4991333;28;20046;-80
2022/01/23 10:18:34;;;;;;;8.50;6.22;;;;;;;;;;5010526;28;20046;-81
2022/01/23 10:21:00;;;;;;;8.32;6.40;;;;;;;;;;4990748;28;20072;-81
2022/01/23 10:23:27;;;;;;;8.98;6.63;;;;;;;;;;5007512;28;20045;-81
2022/01/23 10:25:54;;;;;;;8.65;5.88;;;;;;;;;;5006917;28;20128;-80
2022/01/23 10:28:22;;;;;;;7.63;5.55;;;;;;;;;;4986841;28;20047;-81
2022/01/23 10:30:54;;;;;;;9.40;6.45;;;;;;;;;;4986014;28;20070;-81
2022/01/23 10:33:22;;;;;;;11.23;6.25;;;;;;;;;;4987001;28;20064;-81
2022/01/23 10:35:54;;;;;;;16.80;10.98;;;;;;;;;;4985627;28;20139;-80
2022/01/23 10:38:21;;;;;;;7.28;6.28;;;;;;;;;;4986244;28;20053;-81
2022/01/23 10:40:51;;;;;;;11.80;8.07;;;;;;;;;;4986137;28;20042;-80
2022/01/23 10:48:38;;;;;;;14.32;9.40;;;;;;;;;;4987706;28;20050;-81
2022/01/23 10:51:16;;;;;;;17.75;13.60;;;;;;;;;;4991487;28;20060;-81
2022/01/23 10:54:01;;;;;;;11.68;7.22;;;;;;;;;;4984852;28;20492;-80
2022/01/23 10:56:28;;;;;;;10.70;6.70;;;;;;;;;;4986082;28;20141;-80
2022/01/23 10:58:58;;;;;;;10.07;6.45;;;;;;;;;;4984524;28;20145;-81
2022/01/23 11:01:24;;;;;;;8.68;6.28;;;;;;;;;;4987135;28;20042;-80
2022/01/23 11:04:07;;;;;;;8.38;6.47;;;;;;;;;;4988632;28;20042;-80
2022/01/23 11:06:33;;;;;;;9.60;7.30;;;;;;;;;;4989633;28;20406;-81
2022/01/23 11:09:12;;;;;;;8.25;7.00;;;;;;;;;;4985970;28;20050;-81
2022/01/23 11:11:49;;;;;;;11.23;7.22;;;;;;;;;;4984345;28;20096;-82
2022/01/23 11:19:47;;;;;;;9.15;6.82;;;;;;;;;;4987729;28;20042;-80
2022/01/23 11:22:19;;;;;;;8.98;7.00;;;;;;;;;;4982740;28;20061;-80
2022/01/23 11:24:47;;;;;;;10.05;7.15;;;;;;;;;;4985812;28;20038;-81
2022/01/23 11:27:15;;;;;;;11.35;8.02;;;;;;;;;;4983250;28;20109;-81
2022/01/23 11:30:00;;;;;;;9.23;7.05;;;;;;;;;;4988621;28;20050;-81
2022/01/23 11:32:29;;;;;;;9.27;6.78;;;;;;;;;;4983376;28;20543;-82
2022/01/23 11:35:00;;;;;;;10.50;8.15;;;;;;;;;;4988033;28;20050;-81
2022/01/23 11:37:27;;;;;;;12.43;11.13;;;;;;;;;;4988026;28;20054;-81
2022/01/23 11:39:59;;;;;;;10.45;7.97;;;;;;;;;;4987543;28;20502;-81
2022/01/23 11:53:43;;;;;;;8.80;6.40;;;;;;;;;;4985308;28;20050;-81
2022/01/23 11:53:51;;;;;;;9.30;6.32;;;;;;;;;;4978274;28;20050;-81
2022/01/23 11:56:30;;;;;;;9.60;6.57;;;;;;;;;;4986139;28;20449;-81
2022/01/23 11:59:24;;;;;;;10.43;6.45;;;;;;;;;;4987029;28;20064;-81
2022/01/23 12:02:23;;;;;;;9.75;7.07;;;;;;;;;;4983776;28;20077;-80
2022/01/23 12:05:08;;;;;;;7.38;5.80;;;;;;;;;;4977825;28;20069;-80
2022/01/23 12:07:36;;;;;;;8.85;6.72;;;;;;;;;;4987365;28;20039;-81
2022/01/23 12:10:27;;;;;;;8.45;6.38;;;;;;;;;;4990243;28;20044;-80
2022/01/23 12:18:51;;;;;;;10.25;6.65;;;;;;;;;;4983067;28;20054;-80
2022/01/23 12:21:30;;;;;;;9.40;6.05;;;;;;;;;;4983479;28;20486;-80
2022/01/23 12:23:59;;;;;;;6.75;6.05;;;;;;;;;;4982274;28;20133;-80
2022/01/23 12:26:25;;;;;;;7.25;6.18;;;;;;;;;;4988621;28;20569;-80
2022/01/23 12:28:51;;;;;;;7.72;5.57;;;;;;;;;;4988983;28;20054;-80
2022/01/23 12:31:17;;;;;;;7.97;6.18;;;;;;;;;;5005564;28;20498;-80
2022/01/23 12:33:48;;;;;;;6.97;5.93;;;;;;;;;;5004960;28;20042;-80
2022/01/23 12:36:14;;;;;;;8.00;5.85;;;;;;;;;;4986210;28;20050;-81
2022/01/23 12:38:47;;;;;;;8.15;6.63;;;;;;;;;;4988760;28;20104;-80
2022/01/23 12:41:13;;;;;;;;;;;;;;;;;;5002043;28;20482;-80
2022/01/23 12:43:39;;;;;;;10.82;6.60;;;;;;;;;;5000732;28;19937;-80
2022/01/23 12:46:06;;;;;;;6.95;5.70;;;;;;;;;;5004627;28;20045;-80
2022/01/23 12:48:32;;;;;;;8.20;5.63;;;;;;;;;;5007630;28;20062;-80
2022/01/23 12:51:05;;;;;;;7.03;5.45;;;;;;;;;;5004350;28;20046;-80
2022/01/23 12:53:39;;;;;;;7.65;5.65;;;;;;;;;;4987727;28;20129;-80
2022/01/23 12:56:10;;;;;;;7.88;6.45;;;;;;;;;;5006719;28;20099;-80
2022/01/23 12:58:39;;;;;;;9.05;6.05;;;;;;;;;;4990135;28;20129;-80
2022/01/23 13:01:08;;;;;;;7.28;5.97;;;;;;;;;;4989048;28;20073;-80
2022/01/23 13:03:36;;;;;;;8.00;5.93;;;;;;;;;;4987516;28;20119;-80
2022/01/23 13:06:06;;;;;;;6.82;5.60;;;;;;;;;;5009251;28;20053;-80
2022/01/23 13:08:37;;;;;;;7.38;5.78;;;;;;;;;;5001259;28;20564;-84
2022/01/23 13:13:50;;;;;;;6.47;5.78;;;;;;;;;;5003035;28;20053;-79
2022/01/23 13:30:16;;;;;;;7.32;5.82;;;;;;;;;;5003698;28;20192;-80
2022/01/23 13:32:56;;;;;;;7.22;6.15;;;;;;;;;;4985905;28;20406;-80
2022/01/23 13:35:26;;;;;;;7.25;5.63;;;;;;;;;;5005767;28;20057;-80
2022/01/23 13:37:57;;;;;;;8.27;6.15;;;;;;;;;;5006823;28;20069;-81
2022/01/23 13:40:27;;;;;;;7.25;5.75;;;;;;;;;;4988679;28;20069;-81
2022/01/23 13:59:28;;;;;;;6.57;5.65;;;;;;;;;;4981536;28;20045;-81
2022/01/23 14:04:25;;;;;;;8.27;6.82;;;;;;;;;;5006858;28;20097;-80
2022/01/23 14:06:51;;;;;;;8.20;6.00;;;;;;;;;;4985640;28;20046;-80
2022/01/23 14:09:17;;;;;;;8.20;5.88;;;;;;;;;;5004492;28;20505;-81
2022/01/23 14:11:45;;;;;;;9.48;7.15;;;;;;;;;;4985401;28;20048;-81
2022/01/23 14:14:25;;;;;;;8.73;6.45;;;;;;;;;;4983656;28;20613;-81
2022/01/23 14:16:52;;;;;;;8.80;6.18;;;;;;;;;;4981693;28;20053;-80
2022/01/23 14:19:25;;;;;;;8.27;6.30;;;;;;;;;;4999526;28;20487;-80
2022/01/23 14:21:59;;;;;;;11.77;8.73;;;;;;;;;;4981799;28;20105;-81
2022/01/23 14:24:29;;;;;;;10.38;7.68;;;;;;;;;;5001846;28;20053;-81
2022/01/23 14:27:00;;;;;;;9.07;6.50;;;;;;;;;;4984735;28;20059;-81
2022/01/23 14:29:27;;;;;;;8.15;6.43;;;;;;;;;;4985513;28;20065;-81
2022/01/23 14:32:12;;;;;;;8.77;5.95;;;;;;;;;;4984889;28;20046;-81
2022/01/23 14:34:39;;;;;;;6.68;5.60;;;;;;;;;;4988461;28;20406;-81
2022/01/23 14:37:08;;;;;;;7.13;5.65;;;;;;;;;;4990788;28;20057;-80
2022/01/23 14:39:35;;;;;;;6.93;6.18;;;;;;;;;;4971927;28;20147;-80
2022/01/23 14:42:14;;;;;;;7.97;6.03;;;;;;;;;;5009179;28;20045;-81
2022/01/23 14:44:40;;;;;;;8.00;6.80;;;;;;;;;;5009612;28;20046;-81
2022/01/23 14:47:07;;;;;;;6.90;6.05;;;;;;;;;;4990891;28;20038;-81
2022/01/23 14:49:33;;;;;;;7.25;5.35;;;;;;;;;;5004602;28;20493;-81
2022/01/23 14:52:01;;;;;;;7.05;5.95;;;;;;;;;;5009018;28;20502;-81
2022/01/23 14:54:30;;;;;;;7.53;5.97;;;;;;;;;;4984490;28;20384;-81
2022/01/23 14:56:58;;;;;;;9.65;6.20;;;;;;;;;;5009988;28;21435;-81
2022/01/23 14:59:24;;;;;;;8.07;6.40;;;;;;;;;;5007724;28;20049;-81
2022/01/23 15:01:50;;;;;;;7.75;6.53;;;;;;;;;;4986600;28;20048;-81
2022/01/23 15:04:20;;;;;;;8.48;7.57;;;;;;;;;;5007366;28;20049;-81
2022/01/23 15:06:46;;;;;;;8.77;7.85;;;;;;;;;;5001647;28;20206;-81
2022/01/23 15:09:14;;;;;;;9.15;7.70;;;;;;;;;;4989073;28;20050;-81
2022/01/23 15:11:40;;;;;;;9.65;8.35;;;;;;;;;;5009002;28;20173;-81
2022/01/23 15:14:08;;;;;;;9.80;7.85;;;;;;;;;;4987497;28;20133;-81
2022/01/23 15:16:34;;;;;;;8.55;6.97;;;;;;;;;;4988325;28;20047;-80
2022/01/23 15:19:00;;;;;;;8.80;7.90;;;;;;;;;;4983697;28;20100;-81
2022/01/23 15:21:27;;;;;;;8.43;7.40;;;;;;;;;;5009173;28;20053;-81
2022/01/23 15:23:56;;;;;;;9.40;8.40;;;;;;;;;;4983089;28;20066;-81
2022/01/23 15:26:22;;;;;;;10.90;8.55;;;;;;;;;;4991267;28;20054;-81
2022/01/23 15:28:49;;;;;;;10.40;8.50;;;;;;;;;;5004563;28;20050;-81
2022/01/23 15:31:15;;;;;;;10.10;7.90;;;;;;;;;;5007162;28;20099;-81
2022/01/23 15:33:42;;;;;;;10.13;9.02;;;;;;;;;;5006343;28;20054;-81
2022/01/23 15:36:08;;;;;;;10.75;8.30;;;;;;;;;;5006537;28;20076;-81
2022/01/23 15:38:36;;;;;;;8.85;7.45;;;;;;;;;;4988420;28;20038;-81
2022/01/23 15:41:02;;;;;;;8.57;7.68;;;;;;;;;;4991144;28;20129;-81
2022/01/23 15:43:32;;;;;;;8.70;7.47;;;;;;;;;;5009149;28;20395;-81
2022/01/23 15:45:58;;;;;;;8.60;6.93;;;;;;;;;;4985401;28;20104;-80
2022/01/23 15:48:24;;;;;;;9.75;7.10;;;;;;;;;;5004104;28;20046;-81
2022/01/23 15:50:50;;;;;;;7.35;6.57;;;;;;;;;;5006498;28;20461;-81
2022/01/23 15:53:17;;;;;;;8.93;7.50;;;;;;;;;;5003006;28;20045;-80
2022/01/23 15:55:43;;;;;;;8.32;6.65;;;;;;;;;;5007135;28;20052;-80
2022/01/23 15:58:09;;;;;;;8.18;6.80;;;;;;;;;;4983492;28;20144;-80
2022/01/23 16:00:35;;;;;;;8.57;7.63;;;;;;;;;;5006982;28;20453;-80
2022/01/23 16:03:04;;;;;;;7.68;6.80;;;;;;;;;;5007591;28;20038;-80
2022/01/23 16:05:30;;;;;;;7.63;6.82;;;;;;;;;;5004271;28;20112;-80
2022/01/23 16:07:56;;;;;;;10.43;7.43;;;;;;;;;;4988428;28;20474;-81
2022/01/23 16:10:23;;;;;;;8.15;7.20;;;;;;;;;;4984896;28;20061;-81
2022/01/23 16:12:49;;;;;;;10.73;8.13;;;;;;;;;;5007079;28;20489;-80
2022/01/23 16:15:15;;;;;;;10.73;8.18;;;;;;;;;;4988748;28;20042;-80
2022/01/23 16:17:44;;;;;;;8.65;7.63;;;;;;;;;;4985564;28;20049;-80
2022/01/23 16:20:11;;;;;;;7.95;6.95;;;;;;;;;;4985672;28;20050;-81
2022/01/23 16:22:37;;;;;;;9.95;8.15;;;;;;;;;;4989008;28;20044;-81
2022/01/23 16:25:04;;;;;;;10.43;7.75;;;;;;;;;;5000051;28;20124;-80
2022/01/23 16:27:30;;;;;;;8.55;7.63;;;;;;;;;;4985598;28;20065;-81
2022/01/23 16:29:59;;;;;;;9.50;8.07;;;;;;;;;;4999399;28;20049;-80
2022/01/23 16:32:25;;;;;;;9.00;7.60;;;;;;;;;;4987607;28;20185;-80
2022/01/23 16:34:54;;;;;;;10.18;7.82;;;;;;;;;;5006103;28;20038;-80
2022/01/23 16:37:20;;;;;;;9.55;7.30;;;;;;;;;;5004694;28;20057;-80
2022/01/23 16:39:46;;;;;;;9.50;7.47;;;;;;;;;;5002143;28;20042;-80
2022/01/23 16:42:12;;;;;;;8.50;7.00;;;;;;;;;;5003827;28;20042;-80
2022/01/23 16:44:39;;;;;;;9.45;7.72;;;;;;;;;;4984327;28;20128;-80
2022/01/23 16:47:07;;;;;;;8.25;6.88;;;;;;;;;;4986300;28;20049;-80
2022/01/23 16:49:34;;;;;;;8.60;7.18;;;;;;;;;;5005147;28;20599;-80
2022/01/23 16:52:03;;;;;;;7.65;6.75;;;;;;;;;;5005820;28;20042;-80
2022/01/23 16:54:30;;;;;;;8.35;6.70;;;;;;;;;;5005299;28;20045;-79
2022/01/23 16:57:02;;;;;;;7.68;6.55;;;;;;;;;;4986852;28;20498;-80
2022/01/23 16:59:29;;;;;;;8.80;6.43;;;;;;;;;;4989249;28;20053;-79
2022/01/23 17:01:58;;;;;;;8.32;6.93;;;;;;;;;;5005248;28;20427;-80
2022/01/23 17:04:24;;;;;;;7.00;6.28;;;;;;;;;;5000970;28;20172;-80
2022/01/23 17:06:50;;;;;;;9.45;7.28;;;;;;;;;;5004853;28;20045;-79
2022/01/23 17:09:16;;;;;;;9.55;6.63;;;;;;;;;;4989606;28;20050;-80
2022/01/23 17:11:42;;;;;;;7.60;6.25;;;;;;;;;;4987199;28;20493;-79
2022/01/23 17:14:08;;;;;;;8.35;6.25;;;;;;;;;;4985353;28;20038;-80
2022/01/23 17:16:34;;;;;;;9.18;7.35;;;;;;;;;;4990474;28;20050;-80
2022/01/23 17:19:06;;;;;;;10.77;9.10;;;;;;;;;;5007350;28;20041;-80
2022/01/23 17:21:32;;;;;;;9.93;8.93;;;;;;;;;;5005329;28;20033;-79
2022/01/23 17:23:58;;;;;;;10.18;8.20;;;;;;;;;;4990164;28;20046;-80
2022/01/23 17:26:26;;;;;;;8.30;6.93;;;;;;;;;;5007675;28;20043;-80
2022/01/23 17:28:52;;;;;;;8.77;7.50;;;;;;;;;;5004141;28;20378;-79
2022/01/23 17:31:18;;;;;;;9.18;7.72;;;;;;;;;;5006877;28;20046;-78
2022/01/23 17:33:44;;;;;;;8.80;7.90;;;;;;;;;;5003467;28;20129;-79
2022/01/23 17:36:11;;;;;;;10.10;8.27;;;;;;;;;;5006147;28;20133;-81
2022/01/23 17:38:38;;;;;;;9.38;7.45;;;;;;;;;;5006021;28;20124;-79
2022/01/23 17:41:05;;;;;;;9.82;6.70;;;;;;;;;;4988935;28;20096;-79
2022/01/23 17:43:31;;;;;;;8.10;6.55;;;;;;;;;;4998337;28;20262;-80
2022/01/23 17:45:59;;;;;;;7.22;6.53;;;;;;;;;;4994843;28;20053;-80
2022/01/23 17:51:13;;;;;;;8.55;6.90;;;;;;;;;;5004780;28;20052;-80
2022/01/23 17:53:40;;;;;;;7.53;6.60;;;;;;;;;;5005400;28;20042;-80
2022/01/23 17:56:06;;;;;;;8.30;7.10;;;;;;;;;;4979761;28;20042;-79
2022/01/23 17:58:32;;;;;;;8.23;6.82;;;;;;;;;;5002297;28;20049;-80
2022/01/23 18:00:58;;;;;;;8.90;7.95;;;;;;;;;;4983846;28;20046;-80
2022/01/23 18:03:24;;;;;;;12.13;8.73;;;;;;;;;;4988301;28;20054;-73
2022/01/23 18:05:52;;;;;;;11.52;9.23;;;;;;;;;;4984139;28;20085;-80
2022/01/23 18:08:18;;;;;;;12.75;10.15;;;;;;;;;;4989945;28;20042;-80
2022/01/23 18:10:45;;;;;;;9.73;7.75;;;;;;;;;;5001250;28;20045;-79
2022/01/23 18:13:20;;;;;;;8.40;7.53;;;;;;;;;;5012911;28;20046;-79